sensor_id;sensor_type;location;lat;lon;timestamp;pressure;altitude;pressure_sealevel;temperature;humidity
12349;BME280;5974;42.710;27.258;2024-02-04T00:01:28;100436.56;;;0.48;100.00
12349;BME280;5974;42.710;27.258;2024-02-04T00:03:55;100441.81;;;0.70;100.00
12349;BME280;5974;42.710;27.258;2024-02-04T00:06:22;100437.56;;;0.76;100.00
12349;BME280;5974;42.710;27.258;2024-02-04T00:08:49;100431.56;;;0.85;100.00
12349;BME280;5974;42.710;27.258;2024-02-04T00:11:15;100421.31;;;0.94;100.00
12349;BME280;5974;42.710;27.258;2024-02-04T00:13:42;100431.56;;;0.79;100.00
12349;BME280;5974;42.710;27.258;2024-02-04T00:16:10;100429.00;;;0.88;100.00
12349;BME280;5974;42.710;27.258;2024-02-04T00:18:37;100440.09;;;0.67;100.00
12349;BME280;5974;42.710;27.258;2024-02-04T00:21:04;100440.75;;;0.34;100.00
12349;BME280;5974;42.710;27.258;2024-02-04T00:23:31;100441.00;;;0.80;100.00
12349;BME280;5974;42.710;27.258;2024-02-04T00:25:58;100455.56;;;0.81;100.00
12349;BME280;5974;42.710;27.258;2024-02-04T00:28:24;100443.63;;;0.96;100.00
12349;BME280;5974;42.710;27.258;2024-02-04T00:30:53;100452.88;;;-0.60;100.00
12349;BME280;5974;42.710;27.258;2024-02-04T00:33:22;100450.75;;;-0.08;100.00
12349;BME280;5974;42.710;27.258;2024-02-04T00:35:49;100456.25;;;0.42;100.00
12349;BME280;5974;42.710;27.258;2024-02-04T00:38:16;100457.09;;;0.44;100.00
12349;BME280;5974;42.710;27.258;2024-02-04T00:40:42;100456.34;;;0.63;100.00
12349;BME280;5974;42.710;27.258;2024-02-04T00:43:09;100455.53;;;0.72;100.00
12349;BME280;5974;42.710;27.258;2024-02-04T00:45:36;100453.06;;;-0.37;100.00
12349;BME280;5974;42.710;27.258;2024-02-04T00:48:03;100459.84;;;-0.49;100.00
12349;BME280;5974;42.710;27.258;2024-02-04T00:50:31;100455.78;;;-0.25;100.00
12349;BME280;5974;42.710;27.258;2024-02-04T00:52:58;100456.91;;;0.12;100.00
12349;BME280;5974;42.710;27.258;2024-02-04T00:55:25;100454.38;;;0.17;100.00
12349;BME280;5974;42.710;27.258;2024-02-04T00:57:51;100445.91;;;0.34;100.00
12349;BME280;5974;42.710;27.258;2024-02-04T01:00:20;100437.38;;;0.41;100.00
12349;BME280;5974;42.710;27.258;2024-02-04T01:02:47;100438.25;;;0.45;100.00
12349;BME280;5974;42.710;27.258;2024-02-04T01:05:14;100435.69;;;0.46;100.00
12349;BME280;5974;42.710;27.258;2024-02-04T01:07:42;100438.00;;;0.03;100.00
12349;BME280;5974;42.710;27.258;2024-02-04T01:10:10;100439.09;;;0.39;100.00
12349;BME280;5974;42.710;27.258;2024-02-04T01:12:37;100435.81;;;0.69;100.00
12349;BME280;5974;42.710;27.258;2024-02-04T01:15:04;100429.91;;;0.94;100.00
12349;BME280;5974;42.710;27.258;2024-02-04T01:17:31;100438.50;;;1.05;100.00
12349;BME280;5974;42.710;27.258;2024-02-04T01:19:59;100438.50;;;1.01;100.00
12349;BME280;5974;42.710;27.258;2024-02-04T01:22:25;100434.25;;;1.20;100.00
12349;BME280;5974;42.710;27.258;2024-02-04T01:24:54;100433.38;;;1.13;100.00
12349;BME280;5974;42.710;27.258;2024-02-04T01:27:20;100429.88;;;0.88;100.00
12349;BME280;5974;42.710;27.258;2024-02-04T01:29:47;100429.75;;;0.60;100.00
12349;BME280;5974;42.710;27.258;2024-02-04T01:32:14;100417.78;;;0.63;100.00
12349;BME280;5974;42.710;27.258;2024-02-04T01:34:41;100410.97;;;0.79;100.00
12349;BME280;5974;42.710;27.258;2024-02-04T01:37:08;100420.97;;;0.18;100.00
12349;BME280;5974;42.710;27.258;2024-02-04T01:39:34;100413.44;;;0.51;100.00
12349;BME280;5974;42.710;27.258;2024-02-04T01:42:03;100410.81;;;0.39;100.00
12349;BME280;5974;42.710;27.258;2024-02-04T01:44:30;100409.22;;;0.72;100.00
12349;BME280;5974;42.710;27.258;2024-02-04T01:46:57;100402.28;;;0.55;100.00
12349;BME280;5974;42.710;27.258;2024-02-04T01:49:24;100405.75;;;0.61;100.00
12349;BME280;5974;42.710;27.258;2024-02-04T01:51:52;100405.72;;;0.54;100.00
12349;BME280;5974;42.710;27.258;2024-02-04T01:54:20;100412.31;;;0.04;100.00
12349;BME280;5974;42.710;27.258;2024-02-04T01:56:49;100417.75;;;0.60;100.00
12349;BME280;5974;42.710;27.258;2024-02-04T01:59:17;100407.56;;;0.83;100.00
12349;BME280;5974;42.710;27.258;2024-02-04T02:01:45;100392.16;;;0.92;100.00
12349;BME280;5974;42.710;27.258;2024-02-04T02:04:13;100383.56;;;0.97;100.00
12349;BME280;5974;42.710;27.258;2024-02-04T02:06:40;100381.00;;;1.11;100.00
12349;BME280;5974;42.710;27.258;2024-02-04T02:09:08;100385.25;;;0.79;100.00
12349;BME280;5974;42.710;27.258;2024-02-04T02:11:40;100372.34;;;0.77;100.00
12349;BME280;5974;42.710;27.258;2024-02-04T02:14:13;100366.44;;;1.04;100.00
12349;BME280;5974;42.710;27.258;2024-02-04T02:16:44;100369.78;;;0.77;100.00
12349;BME280;5974;42.710;27.258;2024-02-04T02:19:21;100363.88;;;1.42;100.00
12349;BME280;5974;42.710;27.258;2024-02-04T02:21:58;100364.72;;;1.82;100.00
12349;BME280;5974;42.710;27.258;2024-02-04T02:24:34;100361.25;;;2.01;100.00
12349;BME280;5974;42.710;27.258;2024-02-04T02:27:01;100360.38;;;2.08;100.00
12349;BME280;5974;42.710;27.258;2024-02-04T02:29:27;100365.59;;;1.26;100.00
12349;BME280;5974;42.710;27.258;2024-02-04T02:31:55;100373.22;;;0.73;100.00
12349;BME280;5974;42.710;27.258;2024-02-04T02:34:21;100376.69;;;0.86;100.00
12349;BME280;5974;42.710;27.258;2024-02-04T02:37:03;100379.38;;;1.63;100.00
12349;BME280;5974;42.710;27.258;2024-02-04T02:39:34;100376.75;;;1.71;100.00
12349;BME280;5974;42.710;27.258;2024-02-04T02:42:04;100374.16;;;1.12;100.00
12349;BME280;5974;42.710;27.258;2024-02-04T02:44:32;100381.84;;;0.93;100.00
12349;BME280;5974;42.710;27.258;2024-02-04T02:47:02;100376.69;;;0.87;100.00
12349;BME280;5974;42.710;27.258;2024-02-04T02:49:30;100381.91;;;1.22;100.00
12349;BME280;5974;42.710;27.258;2024-02-04T02:51:56;100381.94;;;1.46;100.00
12349;BME280;5974;42.710;27.258;2024-02-04T02:54:23;100376.69;;;0.96;100.00
12349;BME280;5974;42.710;27.258;2024-02-04T02:56:52;100391.34;;;1.26;100.00
12349;BME280;5974;42.710;27.258;2024-02-04T02:59:18;100385.34;;;1.21;100.00
12349;BME280;5974;42.710;27.258;2024-02-04T03:01:45;100381.94;;;1.78;100.00
12349;BME280;5974;42.710;27.258;2024-02-04T03:04:12;100372.38;;;2.19;100.00
12349;BME280;5974;42.710;27.258;2024-02-04T03:06:38;100376.66;;;2.25;100.00
12349;BME280;5974;42.710;27.258;2024-02-04T03:09:05;100368.00;;;2.49;100.00
12349;BME280;5974;42.710;27.258;2024-02-04T03:11:32;100373.91;;;2.72;100.00
12349;BME280;5974;42.710;27.258;2024-02-04T03:14:00;100364.44;;;2.76;100.00
12349;BME280;5974;42.710;27.258;2024-02-04T03:16:27;100366.16;;;2.73;100.00
12349;BME280;5974;42.710;27.258;2024-02-04T03:18:54;100360.72;;;3.17;100.00
12349;BME280;5974;42.710;27.258;2024-02-04T03:21:20;100369.19;;;3.39;100.00
12349;BME280;5974;42.710;27.258;2024-02-04T03:23:47;100381.81;;;3.72;100.00
12349;BME280;5974;42.710;27.258;2024-02-04T03:26:16;100371.09;;;4.13;100.00
12349;BME280;5974;42.710;27.258;2024-02-04T03:28:44;100371.16;;;4.07;100.00
12349;BME280;5974;42.710;27.258;2024-02-04T03:31:12;100372.44;;;3.65;100.00
12349;BME280;5974;42.710;27.258;2024-02-04T03:33:45;100379.78;;;3.01;100.00
12349;BME280;5974;42.710;27.258;2024-02-04T03:36:12;100389.28;;;2.93;100.00
12349;BME280;5974;42.710;27.258;2024-02-04T03:38:39;100391.81;;;3.02;100.00
12349;BME280;5974;42.710;27.258;2024-02-04T03:41:06;100389.16;;;3.11;100.00
12349;BME280;5974;42.710;27.258;2024-02-04T03:43:35;100381.59;;;2.84;100.00
12349;BME280;5974;42.710;27.258;2024-02-04T03:46:02;100371.97;;;3.10;100.00
12349;BME280;5974;42.710;27.258;2024-02-04T03:48:30;100384.34;;;3.78;100.00
12349;BME280;5974;42.710;27.258;2024-02-04T03:50:59;100382.53;;;3.88;100.00
12349;BME280;5974;42.710;27.258;2024-02-04T03:53:25;100373.63;;;4.21;100.00
12349;BME280;5974;42.710;27.258;2024-02-04T03:55:52;100376.97;;;4.29;100.00
12349;BME280;5974;42.710;27.258;2024-02-04T03:58:19;100375.66;;;3.89;100.00
12349;BME280;5974;42.710;27.258;2024-02-04T04:00:54;100387.47;;;4.14;100.00
12349;BME280;5974;42.710;27.258;2024-02-04T04:03:21;100373.56;;;4.24;100.00
12349;BME280;5974;42.710;27.258;2024-02-04T04:05:49;100366.59;;;4.29;100.00
12349;BME280;5974;42.710;27.258;2024-02-04T04:08:16;100353.53;;;4.43;100.00
12349;BME280;5974;42.710;27.258;2024-02-04T04:10:43;100358.28;;;4.76;100.00
12349;BME280;5974;42.710;27.258;2024-02-04T04:13:10;100347.84;;;4.80;100.00
12349;BME280;5974;42.710;27.258;2024-02-04T04:15:37;100356.50;;;4.78;100.00
12349;BME280;5974;42.710;27.258;2024-02-04T04:18:04;100336.16;;;4.49;100.00
12349;BME280;5974;42.710;27.258;2024-02-04T04:20:30;100342.94;;;4.61;100.00
12349;BME280;5974;42.710;27.258;2024-02-04T04:22:59;100347.56;;;4.36;100.00
12349;BME280;5974;42.710;27.258;2024-02-04T04:25:25;100345.88;;;4.33;100.00
12349;BME280;5974;42.710;27.258;2024-02-04T04:27:52;100359.72;;;4.28;100.00
12349;BME280;5974;42.710;27.258;2024-02-04T04:30:21;100366.81;;;4.11;100.00
12349;BME280;5974;42.710;27.258;2024-02-04T04:32:47;100351.41;;;4.72;100.00
12349;BME280;5974;42.710;27.258;2024-02-04T04:35:14;100338.84;;;5.07;100.00
12349;BME280;5974;42.710;27.258;2024-02-04T04:37:41;100342.69;;;4.79;100.00
12349;BME280;5974;42.710;27.258;2024-02-04T04:40:10;100335.53;;;4.98;100.00
12349;BME280;5974;42.710;27.258;2024-02-04T04:42:37;100340.50;;;5.11;100.00
12349;BME280;5974;42.710;27.258;2024-02-04T04:45:04;100346.09;;;5.39;100.00
12349;BME280;5974;42.710;27.258;2024-02-04T04:47:33;100358.09;;;4.21;100.00
12349;BME280;5974;42.710;27.258;2024-02-04T04:49:59;100346.81;;;3.38;100.00
12349;BME280;5974;42.710;27.258;2024-02-04T04:52:26;100343.63;;;4.00;100.00
12349;BME280;5974;42.710;27.258;2024-02-04T04:54:53;100342.38;;;4.36;100.00
12349;BME280;5974;42.710;27.258;2024-02-04T04:57:21;100358.09;;;4.21;100.00
12349;BME280;5974;42.710;27.258;2024-02-04T04:59:48;100348.25;;;4.50;100.00
12349;BME280;5974;42.710;27.258;2024-02-04T05:02:14;100349.56;;;4.10;100.00
12349;BME280;5974;42.710;27.258;2024-02-04T05:04:42;100343.75;;;4.64;100.00
12349;BME280;5974;42.710;27.258;2024-02-04T05:07:09;100343.97;;;4.46;100.00
12349;BME280;5974;42.710;27.258;2024-02-04T05:09:35;100348.81;;;4.02;100.00
12349;BME280;5974;42.710;27.258;2024-02-04T05:12:03;100388.63;;;3.82;100.00
12349;BME280;5974;42.710;27.258;2024-02-04T05:14:31;100374.16;;;4.47;100.00
12349;BME280;5974;42.710;27.258;2024-02-04T05:16:58;100374.09;;;4.53;100.00
12349;BME280;5974;42.710;27.258;2024-02-04T05:19:24;100388.56;;;3.92;100.00
12349;BME280;5974;42.710;27.258;2024-02-04T05:21:51;100391.19;;;3.86;100.00
12349;BME280;5974;42.710;27.258;2024-02-04T05:24:18;100379.50;;;4.32;100.00
12349;BME280;5974;42.710;27.258;2024-02-04T05:26:44;100389.69;;;4.47;100.00
12349;BME280;5974;42.710;27.258;2024-02-04T05:29:11;100377.47;;;4.61;100.00
12349;BME280;5974;42.710;27.258;2024-02-04T05:31:41;100388.84;;;3.60;100.00
12349;BME280;5974;42.710;27.258;2024-02-04T05:34:08;100395.19;;;4.15;100.00
12349;BME280;5974;42.710;27.258;2024-02-04T05:36:35;100378.00;;;4.13;100.00
12349;BME280;5974;42.710;27.258;2024-02-04T05:39:09;100366.94;;;3.99;100.00
12349;BME280;5974;42.710;27.258;2024-02-04T05:41:36;100373.94;;;3.84;100.00
12349;BME280;5974;42.710;27.258;2024-02-04T05:44:03;100369.53;;;4.73;100.00
12349;BME280;5974;42.710;27.258;2024-02-04T05:46:30;100373.56;;;4.92;100.00
12349;BME280;5974;42.710;27.258;2024-02-04T05:48:58;100376.16;;;4.92;100.00
12349;BME280;5974;42.710;27.258;2024-02-04T05:51:25;100360.91;;;5.32;100.00
12349;BME280;5974;42.710;27.258;2024-02-04T05:53:52;100366.94;;;5.34;100.00
12349;BME280;5974;42.710;27.258;2024-02-04T05:56:19;100364.75;;;5.61;100.00
12349;BME280;5974;42.710;27.258;2024-02-04T05:58:47;100373.06;;;5.27;100.00
12349;BME280;5974;42.710;27.258;2024-02-04T06:01:15;100362.22;;;5.03;100.00
12349;BME280;5974;42.710;27.258;2024-02-04T06:03:42;100364.13;;;4.90;100.00
12349;BME280;5974;42.710;27.258;2024-02-04T06:06:14;100368.03;;;4.54;100.00
12349;BME280;5974;42.710;27.258;2024-02-04T06:08:41;100369.63;;;4.67;100.00
12349;BME280;5974;42.710;27.258;2024-02-04T06:11:09;100365.81;;;4.24;100.00
12349;BME280;5974;42.710;27.258;2024-02-04T06:13:37;100366.75;;;4.17;100.00
12349;BME280;5974;42.710;27.258;2024-02-04T06:16:04;100367.22;;;4.51;100.00
12349;BME280;5974;42.710;27.258;2024-02-04T06:18:31;100352.97;;;5.43;100.00
12349;BME280;5974;42.710;27.258;2024-02-04T06:20:57;100341.88;;;5.85;100.00
12349;BME280;5974;42.710;27.258;2024-02-04T06:23:25;100332.94;;;6.02;100.00
12349;BME280;5974;42.710;27.258;2024-02-04T06:25:52;100328.34;;;6.17;100.00
12349;BME280;5974;42.710;27.258;2024-02-04T06:28:19;100332.19;;;5.96;100.00
12349;BME280;5974;42.710;27.258;2024-02-04T06:30:46;100327.88;;;5.95;100.00
12349;BME280;5974;42.710;27.258;2024-02-04T06:33:12;100321.69;;;5.52;100.00
12349;BME280;5974;42.710;27.258;2024-02-04T06:35:39;100315.91;;;6.31;100.00
12349;BME280;5974;42.710;27.258;2024-02-04T06:38:06;100323.47;;;6.43;100.00
12349;BME280;5974;42.710;27.258;2024-02-04T06:40:34;100319.59;;;6.63;100.00
12349;BME280;5974;42.710;27.258;2024-02-04T06:43:01;100314.50;;;6.98;100.00
12349;BME280;5974;42.710;27.258;2024-02-04T06:45:27;100317.19;;;6.93;100.00
12349;BME280;5974;42.710;27.258;2024-02-04T06:47:54;100324.44;;;7.53;100.00
12349;BME280;5974;42.710;27.258;2024-02-04T06:50:21;100325.16;;;7.59;100.00
12349;BME280;5974;42.710;27.258;2024-02-04T06:52:47;100335.25;;;7.72;100.00
12349;BME280;5974;42.710;27.258;2024-02-04T06:55:14;100338.13;;;7.24;100.00
12349;BME280;5974;42.710;27.258;2024-02-04T06:57:42;100350.13;;;6.93;100.00
12349;BME280;5974;42.710;27.258;2024-02-04T07:00:10;100355.09;;;6.19;100.00
12349;BME280;5974;42.710;27.258;2024-02-04T07:02:37;100356.66;;;6.29;100.00
12349;BME280;5974;42.710;27.258;2024-02-04T07:05:05;100352.44;;;6.67;100.00
12349;BME280;5974;42.710;27.258;2024-02-04T07:07:31;100339.69;;;6.54;100.00
12349;BME280;5974;42.710;27.258;2024-02-04T07:09:59;100365.00;;;6.43;100.00
12349;BME280;5974;42.710;27.258;2024-02-04T07:12:26;100372.28;;;6.25;100.00
12349;BME280;5974;42.710;27.258;2024-02-04T07:14:54;100376.84;;;6.15;100.00
12349;BME280;5974;42.710;27.258;2024-02-04T07:17:20;100378.09;;;6.39;100.00
12349;BME280;5974;42.710;27.258;2024-02-04T07:19:47;100380.28;;;6.60;100.00
12349;BME280;5974;42.710;27.258;2024-02-04T07:22:14;100374.88;;;6.26;100.00
12349;BME280;5974;42.710;27.258;2024-02-04T07:24:41;100373.03;;;6.33;100.00
12349;BME280;5974;42.710;27.258;2024-02-04T07:27:07;100380.00;;;6.29;100.00
12349;BME280;5974;42.710;27.258;2024-02-04T07:29:34;100384.91;;;6.46;100.00
12349;BME280;5974;42.710;27.258;2024-02-04T07:32:03;100390.66;;;6.60;100.00
12349;BME280;5974;42.710;27.258;2024-02-04T07:34:30;100382.94;;;6.57;100.00
12349;BME280;5974;42.710;27.258;2024-02-04T07:36:56;100384.78;;;6.52;100.00
12349;BME280;5974;42.710;27.258;2024-02-04T07:39:23;100380.28;;;6.60;100.00
12349;BME280;5974;42.710;27.258;2024-02-04T07:41:50;100369.84;;;7.01;100.00
12349;BME280;5974;42.710;27.258;2024-02-04T07:44:19;100360.19;;;6.68;100.00
12349;BME280;5974;42.710;27.258;2024-02-04T07:46:46;100356.47;;;7.20;100.00
12349;BME280;5974;42.710;27.258;2024-02-04T07:49:14;100347.94;;;7.50;100.00
12349;BME280;5974;42.710;27.258;2024-02-04T07:51:40;100342.81;;;7.47;100.00
12349;BME280;5974;42.710;27.258;2024-02-04T07:54:07;100339.53;;;7.73;100.00
12349;BME280;5974;42.710;27.258;2024-02-04T07:56:34;100334.31;;;7.74;100.00
12349;BME280;5974;42.710;27.258;2024-02-04T07:59:00;100331.03;;;8.61;100.00
12349;BME280;5974;42.710;27.258;2024-02-04T08:01:29;100338.88;;;7.98;100.00
12349;BME280;5974;42.710;27.258;2024-02-04T08:03:55;100344.63;;;8.09;100.00
12349;BME280;5974;42.710;27.258;2024-02-04T08:06:24;100340.88;;;8.21;100.00
12349;BME280;5974;42.710;27.258;2024-02-04T08:08:51;100336.47;;;8.23;100.00
12349;BME280;5974;42.710;27.258;2024-02-04T08:11:20;100318.31;;;8.80;100.00
12349;BME280;5974;42.710;27.258;2024-02-04T08:13:47;100335.41;;;9.18;100.00
12349;BME280;5974;42.710;27.258;2024-02-04T08:16:14;100322.03;;;9.55;100.00
12349;BME280;5974;42.710;27.258;2024-02-04T08:18:40;100327.84;;;9.37;100.00
12349;BME280;5974;42.710;27.258;2024-02-04T08:21:07;100332.72;;;9.73;100.00
12349;BME280;5974;42.710;27.258;2024-02-04T08:23:35;100340.41;;;9.25;100.00
12349;BME280;5974;42.710;27.258;2024-02-04T08:26:02;100336.25;;;8.91;100.00
12349;BME280;5974;42.710;27.258;2024-02-04T08:28:29;100332.69;;;9.21;100.00
12349;BME280;5974;42.710;27.258;2024-02-04T08:30:55;100339.28;;;9.33;100.00
12349;BME280;5974;42.710;27.258;2024-02-04T08:33:22;100330.44;;;9.10;100.00
12349;BME280;5974;42.710;27.258;2024-02-04T08:35:49;100340.28;;;9.29;100.00
12349;BME280;5974;42.710;27.258;2024-02-04T08:38:16;100343.72;;;9.29;100.00
12349;BME280;5974;42.710;27.258;2024-02-04T08:40:44;100339.38;;;9.02;100.00
12349;BME280;5974;42.710;27.258;2024-02-04T08:43:10;100343.69;;;9.03;100.00
12349;BME280;5974;42.710;27.258;2024-02-04T08:45:37;100340.63;;;8.61;100.00
12349;BME280;5974;42.710;27.258;2024-02-04T08:48:05;100335.13;;;8.99;100.00
12349;BME280;5974;42.710;27.258;2024-02-04T08:50:32;100336.56;;;8.80;100.00
12349;BME280;5974;42.710;27.258;2024-02-04T08:52:58;100334.94;;;8.47;100.00
12349;BME280;5974;42.710;27.258;2024-02-04T08:55:25;100329.09;;;8.39;100.00
12349;BME280;5974;42.710;27.258;2024-02-04T08:57:53;100323.41;;;8.85;100.00
12349;BME280;5974;42.710;27.258;2024-02-04T09:00:20;100324.06;;;8.62;100.00
12349;BME280;5974;42.710;27.258;2024-02-04T09:02:48;100339.84;;;8.87;100.00
12349;BME280;5974;42.710;27.258;2024-02-04T09:05:15;100342.16;;;8.37;100.00
12349;BME280;5974;42.710;27.258;2024-02-04T09:07:43;100316.41;;;8.25;100.00
12349;BME280;5974;42.710;27.258;2024-02-04T09:10:10;100335.19;;;8.38;100.00
12349;BME280;5974;42.710;27.258;2024-02-04T09:12:37;100342.28;;;8.00;100.00
12349;BME280;5974;42.710;27.258;2024-02-04T09:15:07;100345.31;;;8.17;100.00
12349;BME280;5974;42.710;27.258;2024-02-04T09:17:33;100342.75;;;8.47;100.00
12349;BME280;5974;42.710;27.258;2024-02-04T09:20:00;100335.59;;;8.55;100.00
12349;BME280;5974;42.710;27.258;2024-02-04T09:22:28;100332.16;;;8.53;100.00
12349;BME280;5974;42.710;27.258;2024-02-04T09:24:54;100329.50;;;8.84;100.00
12349;BME280;5974;42.710;27.258;2024-02-04T09:27:21;100316.44;;;8.85;100.00
12349;BME280;5974;42.710;27.258;2024-02-04T09:29:48;100324.00;;;9.20;100.00
12349;BME280;5974;42.710;27.258;2024-02-04T09:32:16;100324.16;;;9.44;100.00
12349;BME280;5974;42.710;27.258;2024-02-04T09:34:43;100311.88;;;9.72;100.00
12349;BME280;5974;42.710;27.258;2024-02-04T09:37:09;100302.06;;;9.27;100.00
12349;BME280;5974;42.710;27.258;2024-02-04T09:39:36;100304.00;;;8.93;100.00
12349;BME280;5974;42.710;27.258;2024-02-04T09:42:03;100314.56;;;8.61;100.00
12349;BME280;5974;42.710;27.258;2024-02-04T09:44:30;100285.28;;;8.81;100.00
12349;BME280;5974;42.710;27.258;2024-02-04T09:46:59;100304.81;;;8.95;100.00
12349;BME280;5974;42.710;27.258;2024-02-04T09:49:28;100302.16;;;8.97;100.00
12349;BME280;5974;42.710;27.258;2024-02-04T09:51:59;100291.03;;;8.92;100.00
12349;BME280;5974;42.710;27.258;2024-02-04T09:54:27;100285.84;;;8.90;100.00
12349;BME280;5974;42.710;27.258;2024-02-04T09:56:56;100283.22;;;8.92;100.00
12349;BME280;5974;42.710;27.258;2024-02-04T09:59:23;100268.56;;;9.14;100.00
12349;BME280;5974;42.710;27.258;2024-02-04T10:01:50;100273.94;;;9.36;100.00
12349;BME280;5974;42.710;27.258;2024-02-04T10:04:17;100263.38;;;9.90;100.00
12349;BME280;5974;42.710;27.258;2024-02-04T10:06:45;100265.69;;;9.74;100.00
12349;BME280;5974;42.710;27.258;2024-02-04T10:09:12;100269.94;;;9.76;100.00
12349;BME280;5974;42.710;27.258;2024-02-04T10:11:39;100272.19;;;9.87;100.00
12349;BME280;5974;42.710;27.258;2024-02-04T10:14:06;100248.59;;;10.15;100.00
12349;BME280;5974;42.710;27.258;2024-02-04T10:16:35;100257.69;;;10.50;100.00
12349;BME280;5974;42.710;27.258;2024-02-04T10:19:02;100257.97;;;10.87;100.00
12349;BME280;5974;42.710;27.258;2024-02-04T10:21:28;100251.47;;;10.97;100.00
12349;BME280;5974;42.710;27.258;2024-02-04T10:23:57;100259.22;;;11.42;100.00
12349;BME280;5974;42.710;27.258;2024-02-04T10:26:28;100253.97;;;11.84;100.00
12349;BME280;5974;42.710;27.258;2024-02-04T10:28:58;100262.97;;;11.97;100.00
12349;BME280;5974;42.710;27.258;2024-02-04T10:31:26;100270.56;;;12.42;100.00
12349;BME280;5974;42.710;27.258;2024-02-04T10:33:54;100282.13;;;11.99;100.00
12349;BME280;5974;42.710;27.258;2024-02-04T10:36:21;100268.16;;;11.78;100.00
12349;BME280;5974;42.710;27.258;2024-02-04T10:38:48;100276.25;;;11.10;100.00
12349;BME280;5974;42.710;27.258;2024-02-04T10:41:17;100265.53;;;11.16;100.00
12349;BME280;5974;42.710;27.258;2024-02-04T10:43:44;100271.22;;;10.61;100.00
12349;BME280;5974;42.710;27.258;2024-02-04T10:46:13;100277.00;;;10.69;100.00
12349;BME280;5974;42.710;27.258;2024-02-04T10:48:42;100279.50;;;10.72;100.00
12349;BME280;5974;42.710;27.258;2024-02-04T10:51:12;100255.25;;;10.90;100.00
12349;BME280;5974;42.710;27.258;2024-02-04T10:53:41;100267.72;;;10.83;100.00
12349;BME280;5974;42.710;27.258;2024-02-04T10:56:13;100261.19;;;10.72;100.00
12349;BME280;5974;42.710;27.258;2024-02-04T10:58:41;100257.81;;;10.70;100.00
12349;BME280;5974;42.710;27.258;2024-02-04T11:01:10;100248.00;;;10.75;100.00
12349;BME280;5974;42.710;27.258;2024-02-04T11:03:38;100244.50;;;10.98;100.00
12349;BME280;5974;42.710;27.258;2024-02-04T11:06:05;100241.06;;;10.96;100.00
12349;BME280;5974;42.710;27.258;2024-02-04T11:08:34;100242.88;;;11.15;100.00
12349;BME280;5974;42.710;27.258;2024-02-04T11:11:01;100236.28;;;10.85;100.00
12349;BME280;5974;42.710;27.258;2024-02-04T11:13:28;100224.78;;;11.31;100.00
12349;BME280;5974;42.710;27.258;2024-02-04T11:15:58;100220.81;;;11.63;100.00
12349;BME280;5974;42.710;27.258;2024-02-04T11:18:43;100211.81;;;11.48;100.00
12349;BME280;5974;42.710;27.258;2024-02-04T11:21:36;100209.59;;;12.00;100.00
12349;BME280;5974;42.710;27.258;2024-02-04T11:24:19;100211.16;;;12.22;100.00
12349;BME280;5974;42.710;27.258;2024-02-04T11:26:49;100216.97;;;12.66;100.00
12349;BME280;5974;42.710;27.258;2024-02-04T11:29:16;100215.53;;;13.14;100.00
12349;BME280;5974;42.710;27.258;2024-02-04T11:31:44;100226.69;;;12.64;100.00
12349;BME280;5974;42.710;27.258;2024-02-04T11:34:13;100229.03;;;12.52;100.00
12349;BME280;5974;42.710;27.258;2024-02-04T11:36:39;100226.78;;;12.80;100.00
12349;BME280;5974;42.710;27.258;2024-02-04T11:39:12;100215.28;;;12.46;100.00
12349;BME280;5974;42.710;27.258;2024-02-04T11:41:48;100216.19;;;12.64;100.00
12349;BME280;5974;42.710;27.258;2024-02-04T11:44:20;100223.22;;;12.26;100.00
12349;BME280;5974;42.710;27.258;2024-02-04T11:46:48;100217.44;;;12.74;100.00
12349;BME280;5974;42.710;27.258;2024-02-04T11:49:15;100214.28;;;13.03;100.00
12349;BME280;5974;42.710;27.258;2024-02-04T11:51:45;100214.91;;;13.60;98.78
12349;BME280;5974;42.710;27.258;2024-02-04T11:54:14;100220.31;;;13.23;97.84
12349;BME280;5974;42.710;27.258;2024-02-04T11:56:42;100220.09;;;13.62;97.74
12349;BME280;5974;42.710;27.258;2024-02-04T11:59:09;100209.56;;;13.79;96.54
12349;BME280;5974;42.710;27.258;2024-02-04T12:01:38;100210.88;;;14.20;94.95
12349;BME280;5974;42.710;27.258;2024-02-04T12:04:13;100205.97;;;14.30;94.43
12349;BME280;5974;42.710;27.258;2024-02-04T12:06:40;100197.31;;;14.43;93.72
12349;BME280;5974;42.710;27.258;2024-02-04T12:09:08;100196.63;;;14.24;94.46
12349;BME280;5974;42.710;27.258;2024-02-04T12:11:36;100198.53;;;14.53;91.66
12349;BME280;5974;42.710;27.258;2024-02-04T12:14:04;100181.97;;;14.03;92.02
12349;BME280;5974;42.710;27.258;2024-02-04T12:16:32;100183.47;;;14.08;91.44
12349;BME280;5974;42.710;27.258;2024-02-04T12:19:01;100183.13;;;14.15;91.35
12349;BME280;5974;42.710;27.258;2024-02-04T12:21:30;100176.03;;;13.67;93.00
12349;BME280;5974;42.710;27.258;2024-02-04T12:23:57;100187.09;;;12.69;95.77
12349;BME280;5974;42.710;27.258;2024-02-04T12:26:25;100181.47;;;12.95;98.96
12349;BME280;5974;42.710;27.258;2024-02-04T12:28:52;100181.75;;;12.53;99.11
12349;BME280;5974;42.710;27.258;2024-02-04T12:31:19;100187.53;;;12.78;100.00
12349;BME280;5974;42.710;27.258;2024-02-04T12:33:53;100177.00;;;13.66;97.51
12349;BME280;5974;42.710;27.258;2024-02-04T12:36:23;100171.66;;;12.63;98.84
12349;BME280;5974;42.710;27.258;2024-02-04T12:38:53;100166.88;;;12.54;100.00
12349;BME280;5974;42.710;27.258;2024-02-04T12:41:21;100171.69;;;13.16;100.00
12349;BME280;5974;42.710;27.258;2024-02-04T12:43:52;100157.63;;;13.34;98.91
12349;BME280;5974;42.710;27.258;2024-02-04T12:46:20;100156.31;;;14.08;95.45
12349;BME280;5974;42.710;27.258;2024-02-04T12:48:51;100160.13;;;14.18;92.94
12349;BME280;5974;42.710;27.258;2024-02-04T12:51:29;100153.75;;;14.06;94.00